createdAt,value
2019-03-24T00:00:32.574Z,25.10
2019-03-24T00:03:01.438Z,29.83
2019-03-24T00:05:29.834Z,35.13
2019-03-24T00:07:58.203Z,47.07
2019-03-24T00:10:26.808Z,41.27
2019-03-24T00:12:56.704Z,43.07
2019-03-24T00:15:26.608Z,43.13
2019-03-24T00:17:58.096Z,43.07
2019-03-24T00:20:27.447Z,39.93
2019-03-24T00:22:55.750Z,35.57
2019-03-24T00:25:24.252Z,33.33
2019-03-24T00:27:52.724Z,37.90
2019-03-24T00:30:21.089Z,35.07
2019-03-24T00:32:52.200Z,34.17
2019-03-24T00:35:20.462Z,38.03
2019-03-24T00:37:51.558Z,32.53
2019-03-24T00:40:19.759Z,35.57
2019-03-24T00:42:48.046Z,34.93
2019-03-24T00:45:16.402Z,38.50
2019-03-24T00:47:44.637Z,38.17
2019-03-24T00:50:12.972Z,35.53
2019-03-24T00:52:41.328Z,30.43
2019-03-24T00:55:10.200Z,29.80
2019-03-24T00:57:38.544Z,23.47
2019-03-24T01:00:07.599Z,18.90
2019-03-24T01:02:35.840Z,18.03
2019-03-24T01:05:04.565Z,18.63
2019-03-24T01:07:33.772Z,24.97
2019-03-24T01:10:06.062Z,26.17
2019-03-24T01:12:34.423Z,24.50
2019-03-24T01:15:02.776Z,19.40
2019-03-24T01:17:30.969Z,19.10
2019-03-24T01:19:59.221Z,15.37
2019-03-24T01:22:27.493Z,17.17
2019-03-24T01:24:56.173Z,13.50
2019-03-24T01:27:24.548Z,15.47
2019-03-24T01:29:52.970Z,14.50
2019-03-24T01:32:25.495Z,13.17
2019-03-24T01:34:55.947Z,11.63
2019-03-24T01:37:24.451Z,10.93
2019-03-24T01:39:52.582Z,12.17
2019-03-24T01:42:20.990Z,11.00
2019-03-24T01:44:49.347Z,11.80
2019-03-24T01:47:17.626Z,11.83
2019-03-24T01:49:45.934Z,12.70
2019-03-24T01:52:14.228Z,15.83
2019-03-24T01:54:42.488Z,13.77
2019-03-24T01:57:10.850Z,16.47
2019-03-24T01:59:39.420Z,16.83
2019-03-24T02:02:07.806Z,16.40
2019-03-24T02:04:36.186Z,13.37
2019-03-24T02:07:07.512Z,15.43
2019-03-24T02:09:35.957Z,15.50
2019-03-24T02:12:04.517Z,14.07
2019-03-24T02:14:32.793Z,15.90
2019-03-24T02:17:01.107Z,14.83
2019-03-24T02:19:29.330Z,13.50
2019-03-24T02:21:57.635Z,12.87
2019-03-24T02:24:26.086Z,12.20
2019-03-24T02:26:54.310Z,12.43
2019-03-24T02:29:22.454Z,12.60
2019-03-24T02:31:50.905Z,12.10
2019-03-24T02:34:19.232Z,15.17
2019-03-24T02:36:47.919Z,13.17
2019-03-24T02:39:16.054Z,14.10
2019-03-24T02:41:44.788Z,12.80
2019-03-24T02:44:13.006Z,12.50
2019-03-24T02:46:43.826Z,13.37
2019-03-24T02:49:12.356Z,12.07
2019-03-24T02:51:40.658Z,11.17
2019-03-24T02:54:12.566Z,11.60
2019-03-24T02:56:40.996Z,10.37
2019-03-24T02:59:09.473Z,10.83
2019-03-24T03:01:37.803Z,11.10
2019-03-24T03:04:07.463Z,10.77
2019-03-24T03:06:35.746Z,11.07
2019-03-24T03:09:06.269Z,12.33
2019-03-24T03:11:34.525Z,12.53
2019-03-24T03:14:02.902Z,13.97
2019-03-24T03:16:38.374Z,13.23
2019-03-24T03:19:01.415Z,12.83
2019-03-24T03:21:29.639Z,13.47
2019-03-24T03:23:57.964Z,14.03
2019-03-24T03:26:26.535Z,14.23
2019-03-24T03:28:54.715Z,14.73
2019-03-24T03:31:24.321Z,14.17
2019-03-24T03:33:52.519Z,15.90
2019-03-24T03:36:20.700Z,15.70
2019-03-24T03:38:49.069Z,14.97
2019-03-24T03:41:17.391Z,15.67
2019-03-24T03:43:45.738Z,15.37
2019-03-24T03:46:13.936Z,16.00
2019-03-24T03:48:42.144Z,15.97
2019-03-24T03:51:10.422Z,17.17
2019-03-24T03:53:38.667Z,17.47
2019-03-24T03:56:06.994Z,17.40
2019-03-24T03:58:36.455Z,16.40
2019-03-24T04:01:04.703Z,16.30
2019-03-24T04:03:32.871Z,17.37
2019-03-24T04:06:01.054Z,16.00
2019-03-24T04:08:29.682Z,15.37
2019-03-24T04:10:57.901Z,15.77
2019-03-24T04:13:26.179Z,15.73
2019-03-24T04:15:56.592Z,16.37
2019-03-24T04:18:25.003Z,15.47
2019-03-24T04:20:53.292Z,15.90
2019-03-24T04:23:21.672Z,15.57
2019-03-24T04:25:50.002Z,16.17
2019-03-24T04:28:18.369Z,14.27
2019-03-24T04:30:46.744Z,15.80
2019-03-24T04:33:14.960Z,16.33
2019-03-24T04:35:43.447Z,16.17
2019-03-24T04:38:11.774Z,16.37
2019-03-24T04:40:40.172Z,15.40
2019-03-24T04:43:08.556Z,14.77
2019-03-24T04:45:36.960Z,15.97
2019-03-24T04:48:05.351Z,14.93
2019-03-24T04:50:33.588Z,14.97
2019-03-24T04:53:01.822Z,14.53
2019-03-24T04:55:30.118Z,14.10
2019-03-24T04:57:58.457Z,13.77
2019-03-24T05:00:35.025Z,14.07
2019-03-24T05:03:03.416Z,13.60
2019-03-24T05:05:31.717Z,12.67
2019-03-24T05:08:00.319Z,12.37
2019-03-24T05:10:28.808Z,11.50
2019-03-24T05:12:57.168Z,11.53
2019-03-24T05:15:25.478Z,12.07
2019-03-24T05:17:53.780Z,12.20
2019-03-24T05:20:22.236Z,12.40
2019-03-24T05:22:50.518Z,12.70
2019-03-24T05:25:18.780Z,11.60
2019-03-24T05:27:48.369Z,11.60
2019-03-24T05:30:16.541Z,12.27
2019-03-24T05:32:44.812Z,12.37
2019-03-24T05:35:13.262Z,11.17
2019-03-24T05:37:41.448Z,12.03
2019-03-24T05:40:10.011Z,12.07
2019-03-24T05:42:40.444Z,13.37
2019-03-24T05:45:09.030Z,13.77
2019-03-24T05:47:37.664Z,14.47
2019-03-24T05:50:08.590Z,14.57
2019-03-24T05:52:36.961Z,14.60
2019-03-24T05:55:05.686Z,15.20
2019-03-24T05:57:36.349Z,14.40
2019-03-24T06:00:05.410Z,15.60
2019-03-24T06:02:33.703Z,13.73
2019-03-24T06:05:02.288Z,15.07
2019-03-24T06:07:30.622Z,14.70
2019-03-24T06:09:58.894Z,13.07
2019-03-24T06:12:27.335Z,12.87
2019-03-24T06:14:55.536Z,12.93
2019-03-24T06:17:23.995Z,12.00
2019-03-24T06:19:52.382Z,12.27
2019-03-24T06:22:22.326Z,10.20
2019-03-24T06:24:50.661Z,8.30
2019-03-24T06:27:18.949Z,10.53
2019-03-24T06:29:47.490Z,9.23
2019-03-24T06:32:15.836Z,10.23
2019-03-24T06:34:43.978Z,8.00
2019-03-24T06:37:12.376Z,9.90
2019-03-24T06:39:40.837Z,9.87
2019-03-24T06:42:09.087Z,9.33
2019-03-24T06:44:37.370Z,8.23
2019-03-24T06:47:06.682Z,9.23
2019-03-24T06:49:35.708Z,9.57
2019-03-24T06:52:04.081Z,8.67
2019-03-24T06:54:32.614Z,8.63
2019-03-24T06:57:00.938Z,8.53
2019-03-24T06:59:29.099Z,9.60
2019-03-24T07:02:00.492Z,9.20
2019-03-24T07:04:28.848Z,8.13
2019-03-24T07:06:57.068Z,10.23
2019-03-24T07:09:25.538Z,9.93
2019-03-24T07:11:53.850Z,10.17
2019-03-24T07:14:25.950Z,9.23
2019-03-24T07:16:54.348Z,9.00
2019-03-24T07:19:24.785Z,9.53
2019-03-24T07:21:54.202Z,9.33
2019-03-24T07:24:22.485Z,9.40
2019-03-24T07:26:50.871Z,9.90
2019-03-24T07:29:19.208Z,9.97
2019-03-24T07:31:47.546Z,10.43
2019-03-24T07:34:16.136Z,10.60
2019-03-24T07:36:44.523Z,10.90
2019-03-24T07:39:12.833Z,9.97
2019-03-24T07:41:41.062Z,11.20
2019-03-24T07:44:09.285Z,10.40
2019-03-24T07:46:37.502Z,11.57
2019-03-24T07:49:05.999Z,11.10
2019-03-24T07:51:34.246Z,10.03
2019-03-24T07:54:02.526Z,10.57
2019-03-24T07:56:30.975Z,11.43
2019-03-24T07:58:59.280Z,10.63
2019-03-24T08:01:27.709Z,10.47
2019-03-24T08:03:55.876Z,10.40
2019-03-24T08:06:24.070Z,10.33
2019-03-24T08:08:52.533Z,11.90
2019-03-24T08:11:20.807Z,10.40
2019-03-24T08:13:53.931Z,10.63
2019-03-24T08:16:19.577Z,11.10
2019-03-24T08:18:48.025Z,10.60
2019-03-24T08:21:16.297Z,10.80
2019-03-24T08:23:44.584Z,10.77
2019-03-24T08:26:15.439Z,10.67
2019-03-24T08:28:43.649Z,9.93
2019-03-24T08:31:12.138Z,10.07
2019-03-24T08:33:40.931Z,9.73
2019-03-24T08:36:09.402Z,9.87
2019-03-24T08:38:37.846Z,10.10
2019-03-24T08:41:06.135Z,8.93
2019-03-24T08:43:34.622Z,10.47
2019-03-24T08:46:03.088Z,9.60
2019-03-24T08:48:40.419Z,8.20
2019-03-24T08:51:01.568Z,8.93
2019-03-24T08:53:29.850Z,8.53
2019-03-24T08:55:58.163Z,8.60
2019-03-24T08:58:29.666Z,7.73
2019-03-24T09:00:57.887Z,8.13
2019-03-24T09:03:26.104Z,8.73
2019-03-24T09:05:54.527Z,8.80
2019-03-24T09:08:22.777Z,8.07
2019-03-24T09:10:51.811Z,7.83
2019-03-24T09:13:20.054Z,8.83
2019-03-24T09:15:48.224Z,8.27
2019-03-24T09:18:16.680Z,8.53
2019-03-24T09:20:44.929Z,7.47
2019-03-24T09:23:13.130Z,8.40
2019-03-24T09:25:41.341Z,8.30
2019-03-24T09:28:09.510Z,7.73
2019-03-24T09:30:38.325Z,7.77
2019-03-24T09:33:06.668Z,7.47
2019-03-24T09:35:35.156Z,7.60
2019-03-24T09:38:03.515Z,7.13
2019-03-24T09:40:32.810Z,7.93
2019-03-24T09:43:02.091Z,7.57
2019-03-24T09:45:31.184Z,7.43
2019-03-24T09:47:59.674Z,7.60
2019-03-24T09:50:27.995Z,8.70
2019-03-24T09:52:56.256Z,8.47
2019-03-24T09:55:24.470Z,7.60
2019-03-24T09:57:52.730Z,7.90
2019-03-24T10:00:20.935Z,7.60
2019-03-24T10:02:49.480Z,7.63
2019-03-24T10:05:17.786Z,7.70
2019-03-24T10:07:47.692Z,7.50
2019-03-24T10:10:16.020Z,7.40
2019-03-24T10:12:44.388Z,7.10
2019-03-24T10:15:13.997Z,7.23
2019-03-24T10:17:42.264Z,7.20
2019-03-24T10:20:11.166Z,7.13
2019-03-24T10:22:39.464Z,7.00
2019-03-24T10:25:07.915Z,6.43
2019-03-24T10:27:36.405Z,6.97
2019-03-24T10:30:11.047Z,7.50
2019-03-24T10:32:39.330Z,6.50
2019-03-24T10:35:07.774Z,6.37
2019-03-24T10:37:36.328Z,6.40
2019-03-24T10:40:06.490Z,6.97
2019-03-24T10:42:34.731Z,6.73
2019-03-24T10:45:02.945Z,6.50
2019-03-24T10:47:31.198Z,5.97
2019-03-24T10:49:59.378Z,6.13
2019-03-24T10:52:27.717Z,6.00
2019-03-24T10:54:55.956Z,6.10
2019-03-24T10:57:24.285Z,6.10
2019-03-24T10:59:53.472Z,5.13
2019-03-24T11:02:21.917Z,5.83
2019-03-24T11:04:50.234Z,5.77
2019-03-24T11:07:18.589Z,5.70
2019-03-24T11:09:47.080Z,5.53
2019-03-24T11:12:15.449Z,5.00
2019-03-24T11:14:43.800Z,5.33
2019-03-24T11:17:12.024Z,5.40
2019-03-24T11:19:40.582Z,5.03
2019-03-24T11:22:09.121Z,5.10
2019-03-24T11:24:41.456Z,5.97
2019-03-24T11:27:09.810Z,5.37
2019-03-24T11:29:38.090Z,5.23
2019-03-24T11:32:07.316Z,6.00
2019-03-24T11:34:35.844Z,5.37
2019-03-24T11:37:04.446Z,5.37
2019-03-24T11:39:32.699Z,5.33
2019-03-24T11:42:01.030Z,5.50
2019-03-24T11:44:34.713Z,5.67
2019-03-24T11:47:01.184Z,5.10
2019-03-24T11:49:29.546Z,5.70
2019-03-24T11:51:57.788Z,6.47
2019-03-24T11:54:26.310Z,5.80
2019-03-24T11:56:54.733Z,6.43
2019-03-24T11:59:23.211Z,6.50
2019-03-24T12:01:53.682Z,6.17
2019-03-24T12:04:21.801Z,6.03
2019-03-24T12:06:50.208Z,5.53
2019-03-24T12:09:18.618Z,6.27
2019-03-24T12:11:47.025Z,5.47
2019-03-24T12:14:15.192Z,5.77
2019-03-24T12:16:43.684Z,5.33
2019-03-24T12:19:12.066Z,5.30
2019-03-24T12:21:41.009Z,5.87
2019-03-24T12:24:10.221Z,5.63
2019-03-24T12:26:38.806Z,5.73
2019-03-24T12:29:07.300Z,4.80
2019-03-24T12:31:35.651Z,5.03
2019-03-24T12:34:04.721Z,5.50
2019-03-24T12:36:34.943Z,5.03
2019-03-24T12:39:04.452Z,5.50
2019-03-24T12:41:32.647Z,4.53
2019-03-24T12:44:00.935Z,3.73
2019-03-24T12:46:29.220Z,3.60
2019-03-24T12:48:57.620Z,3.30
2019-03-24T12:51:26.364Z,3.60
2019-03-24T12:53:54.736Z,3.50
2019-03-24T12:56:23.044Z,3.27
2019-03-24T12:58:51.429Z,3.83
2019-03-24T13:01:19.849Z,4.00
2019-03-24T13:03:48.056Z,3.77
2019-03-24T13:06:18.626Z,3.90
2019-03-24T13:08:49.275Z,4.43
2019-03-24T13:11:17.790Z,3.87
2019-03-24T13:13:46.079Z,3.37
2019-03-24T13:16:14.446Z,4.03
2019-03-24T13:18:42.700Z,3.90
2019-03-24T13:21:11.012Z,4.27
2019-03-24T13:23:39.542Z,4.50
2019-03-24T13:26:08.025Z,4.40
2019-03-24T13:28:37.970Z,3.90
2019-03-24T13:31:06.134Z,4.00
2019-03-24T13:33:34.331Z,3.87
2019-03-24T13:36:10.669Z,3.90
2019-03-24T13:38:39.109Z,4.60
2019-03-24T13:41:07.552Z,4.70
2019-03-24T13:43:35.978Z,4.23
2019-03-24T13:46:04.432Z,4.40
2019-03-24T13:48:32.738Z,4.80
2019-03-24T13:51:01.039Z,4.00
2019-03-24T13:53:29.453Z,4.43
2019-03-24T13:55:57.763Z,4.13
2019-03-24T13:58:26.020Z,4.00
2019-03-24T14:00:54.319Z,4.20
2019-03-24T14:03:22.675Z,3.43
2019-03-24T14:05:52.309Z,4.23
2019-03-24T14:08:20.675Z,3.33
2019-03-24T14:10:48.941Z,3.33
2019-03-24T14:13:17.331Z,3.93
2019-03-24T14:15:45.705Z,3.80
2019-03-24T14:18:14.258Z,3.37
2019-03-24T14:20:43.902Z,4.67
2019-03-24T14:23:14.840Z,4.60
2019-03-24T14:25:45.433Z,4.97
2019-03-24T14:28:13.824Z,4.87
2019-03-24T14:30:44.565Z,4.90
2019-03-24T14:33:13.107Z,4.60
2019-03-24T14:35:41.592Z,4.17
2019-03-24T14:38:12.722Z,4.00
2019-03-24T14:40:40.974Z,4.43
2019-03-24T14:43:09.253Z,3.67
2019-03-24T14:45:37.620Z,4.00
2019-03-24T14:48:05.897Z,3.80
2019-03-24T14:50:34.181Z,3.50
2019-03-24T14:53:02.530Z,4.03
2019-03-24T14:55:32.778Z,3.97
2019-03-24T14:58:01.247Z,4.20
2019-03-24T15:00:39.238Z,4.60
2019-03-24T15:03:07.505Z,4.40
2019-03-24T15:05:35.861Z,4.27
2019-03-24T15:08:05.374Z,4.60
2019-03-24T15:10:33.675Z,3.53
2019-03-24T15:13:01.976Z,3.80
2019-03-24T15:15:30.229Z,4.20
2019-03-24T15:17:58.606Z,4.10
2019-03-24T15:20:26.795Z,4.20
2019-03-24T15:22:55.081Z,3.80
2019-03-24T15:25:23.384Z,4.27
2019-03-24T15:27:51.744Z,4.43
2019-03-24T15:30:20.263Z,4.40
2019-03-24T15:32:48.561Z,3.83
2019-03-24T15:35:16.975Z,4.00
2019-03-24T15:37:45.434Z,3.53
2019-03-24T15:40:13.936Z,3.00
2019-03-24T15:42:42.279Z,3.37
2019-03-24T15:45:11.855Z,3.43
2019-03-24T15:47:40.186Z,3.50
2019-03-24T15:50:09.141Z,4.00
2019-03-24T15:52:37.508Z,3.50
2019-03-24T15:55:06.188Z,3.17
2019-03-24T15:57:36.532Z,2.90
2019-03-24T16:00:07.179Z,3.83
2019-03-24T16:02:35.474Z,3.97
2019-03-24T16:05:03.888Z,3.73
2019-03-24T16:07:32.165Z,3.47
2019-03-24T16:10:00.552Z,4.13
2019-03-24T16:12:28.789Z,4.47
2019-03-24T16:14:57.294Z,5.00
2019-03-24T16:17:25.811Z,4.40
2019-03-24T16:19:54.594Z,4.20
2019-03-24T16:22:22.889Z,4.57
2019-03-24T16:24:51.189Z,4.30
2019-03-24T16:27:19.524Z,4.23
2019-03-24T16:29:47.781Z,3.80
2019-03-24T16:32:16.075Z,4.10
2019-03-24T16:34:44.366Z,3.90
2019-03-24T16:37:12.640Z,3.93
2019-03-24T16:39:41.285Z,4.17
2019-03-24T16:42:09.595Z,4.00
2019-03-24T16:44:37.789Z,4.27
2019-03-24T16:47:06.129Z,5.10
2019-03-24T16:49:35.102Z,4.60
2019-03-24T16:52:03.529Z,5.03
2019-03-24T16:54:32.378Z,5.43
2019-03-24T16:57:00.710Z,4.90
2019-03-24T16:59:29.142Z,5.13
2019-03-24T17:01:57.564Z,5.23
2019-03-24T17:04:26.108Z,4.80
2019-03-24T17:06:54.600Z,4.60
2019-03-24T17:09:22.850Z,5.17
2019-03-24T17:11:53.410Z,4.50
2019-03-24T17:14:21.751Z,4.33
2019-03-24T17:16:49.976Z,4.93
2019-03-24T17:19:18.521Z,5.03
2019-03-24T17:21:50.185Z,5.60
2019-03-24T17:24:17.140Z,5.33
2019-03-24T17:26:45.590Z,5.80
2019-03-24T17:29:13.826Z,4.70
2019-03-24T17:31:42.257Z,5.03
2019-03-24T17:34:10.621Z,4.60
2019-03-24T17:36:39.052Z,4.70
2019-03-24T17:39:08.160Z,4.90
2019-03-24T17:41:36.399Z,4.47
2019-03-24T17:44:04.747Z,4.80
2019-03-24T17:46:33.064Z,4.50
2019-03-24T17:49:01.408Z,4.67
2019-03-24T17:51:29.795Z,4.80
2019-03-24T17:53:58.167Z,5.00
2019-03-24T17:56:29.233Z,4.73
2019-03-24T17:59:00.096Z,5.07
2019-03-24T18:01:28.447Z,5.30
2019-03-24T18:03:56.757Z,5.13
2019-03-24T18:06:25.268Z,5.30
2019-03-24T18:08:53.534Z,5.40
2019-03-24T18:11:21.761Z,5.50
2019-03-24T18:13:50.048Z,5.60
2019-03-24T18:16:18.355Z,5.30
2019-03-24T18:18:46.758Z,5.63
2019-03-24T18:21:16.624Z,5.40
2019-03-24T18:23:44.994Z,5.27
2019-03-24T18:26:13.201Z,5.97
2019-03-24T18:28:41.425Z,5.43
2019-03-24T18:31:09.729Z,5.67
2019-03-24T18:33:38.528Z,5.53
2019-03-24T18:36:06.829Z,6.07
2019-03-24T18:38:35.060Z,6.07
2019-03-24T18:41:03.427Z,5.60
2019-03-24T18:43:31.994Z,5.97
2019-03-24T18:46:00.312Z,5.70
2019-03-24T18:48:28.529Z,6.03
2019-03-24T18:50:56.845Z,7.10
2019-03-24T18:53:25.255Z,6.17
2019-03-24T18:55:53.623Z,6.50
2019-03-24T18:58:21.901Z,6.53
2019-03-24T19:00:55.401Z,5.73
2019-03-24T19:03:23.632Z,6.43
2019-03-24T19:05:52.010Z,5.73
2019-03-24T19:08:21.764Z,6.97
2019-03-24T19:10:50.069Z,6.60
2019-03-24T19:13:18.348Z,6.37
2019-03-24T19:15:46.776Z,6.50
2019-03-24T19:18:16.322Z,7.07
2019-03-24T19:20:44.766Z,6.03
2019-03-24T19:23:13.091Z,6.57
2019-03-24T19:25:41.407Z,6.73
2019-03-24T19:28:09.848Z,6.50
2019-03-24T19:30:39.291Z,7.40
2019-03-24T19:33:07.782Z,6.67
2019-03-24T19:35:36.242Z,6.97
2019-03-24T19:38:06.980Z,7.40
2019-03-24T19:40:36.618Z,7.13
2019-03-24T19:43:05.060Z,7.07
2019-03-24T19:45:33.428Z,7.67
2019-03-24T19:48:01.931Z,7.90
2019-03-24T19:50:30.374Z,7.47
2019-03-24T19:52:58.662Z,7.70
2019-03-24T19:55:27.066Z,7.63
2019-03-24T19:57:55.701Z,7.40
2019-03-24T20:00:24.049Z,7.30
2019-03-24T20:02:52.402Z,7.03
2019-03-24T20:05:20.797Z,7.10
2019-03-24T20:07:49.259Z,7.43
2019-03-24T20:10:17.665Z,7.10
2019-03-24T20:12:46.129Z,6.80
2019-03-24T20:15:14.668Z,8.30
2019-03-24T20:17:42.907Z,8.43
2019-03-24T20:20:11.391Z,8.50
2019-03-24T20:22:39.846Z,8.33
2019-03-24T20:25:08.341Z,8.03
2019-03-24T20:27:36.642Z,8.90
2019-03-24T20:30:06.724Z,9.23
2019-03-24T20:32:36.150Z,8.17
2019-03-24T20:35:05.363Z,8.27
2019-03-24T20:37:33.862Z,8.80
2019-03-24T20:40:02.166Z,9.33
2019-03-24T20:42:30.682Z,9.57
2019-03-24T20:44:59.129Z,9.43
2019-03-24T20:47:27.449Z,9.33
2019-03-24T20:49:55.800Z,8.77
2019-03-24T20:52:26.459Z,9.47
2019-03-24T20:54:54.721Z,8.93
2019-03-24T20:57:23.049Z,9.23
2019-03-24T20:59:52.190Z,9.10
2019-03-24T21:02:20.717Z,10.60
2019-03-24T21:04:49.013Z,8.93
2019-03-24T21:07:17.269Z,11.30
2019-03-24T21:09:46.554Z,9.20
2019-03-24T21:12:14.926Z,10.37
2019-03-24T21:14:43.199Z,10.77
2019-03-24T21:17:11.650Z,10.13
2019-03-24T21:19:39.816Z,10.00
2019-03-24T21:22:08.121Z,9.47
2019-03-24T21:24:36.412Z,10.07
2019-03-24T21:27:07.058Z,11.97
2019-03-24T21:29:34.917Z,12.00
2019-03-24T21:32:03.418Z,12.03
2019-03-24T21:34:31.776Z,12.07
2019-03-24T21:37:01.033Z,13.40
2019-03-24T21:39:29.656Z,13.43
2019-03-24T21:41:57.937Z,13.00
2019-03-24T21:44:26.267Z,12.67
2019-03-24T21:46:54.603Z,11.43
2019-03-24T21:49:22.782Z,11.60
2019-03-24T21:51:51.194Z,11.80
2019-03-24T21:54:19.542Z,12.30
2019-03-24T21:56:47.885Z,13.33
2019-03-24T21:59:17.400Z,12.23
2019-03-24T22:01:45.727Z,13.33
2019-03-24T22:04:13.966Z,12.93
2019-03-24T22:06:42.973Z,13.13
2019-03-24T22:09:15.062Z,13.30
2019-03-24T22:11:44.400Z,12.70
2019-03-24T22:14:15.607Z,12.77
2019-03-24T22:16:43.969Z,13.53
2019-03-24T22:19:12.214Z,13.00
2019-03-24T22:21:40.494Z,13.63
2019-03-24T22:24:14.969Z,15.43
2019-03-24T22:26:39.690Z,14.77
2019-03-24T22:29:07.843Z,15.97
2019-03-24T22:31:36.306Z,15.40
2019-03-24T22:34:04.738Z,15.70
2019-03-24T22:36:33.116Z,15.70
2019-03-24T22:39:01.434Z,16.37
2019-03-24T22:41:30.032Z,16.40
2019-03-24T22:43:58.311Z,16.07
2019-03-24T22:46:26.595Z,16.87
2019-03-24T22:48:54.875Z,17.80
2019-03-24T22:51:23.055Z,19.10
2019-03-24T22:53:51.248Z,21.17
2019-03-24T22:56:19.458Z,19.63
2019-03-24T22:58:47.733Z,19.73
2019-03-24T23:01:17.568Z,21.13
2019-03-24T23:03:45.789Z,21.53
2019-03-24T23:06:14.094Z,20.40
2019-03-24T23:08:46.052Z,22.67
2019-03-24T23:11:14.214Z,26.43
2019-03-24T23:13:43.902Z,23.67
2019-03-24T23:16:12.132Z,22.50
2019-03-24T23:18:40.382Z,23.30
2019-03-24T23:21:08.632Z,26.53
2019-03-24T23:23:49.480Z,25.27
2019-03-24T23:26:15.218Z,26.03
2019-03-24T23:28:43.341Z,25.77
2019-03-24T23:31:11.583Z,30.20
2019-03-24T23:33:39.810Z,30.03
2019-03-24T23:36:08.243Z,30.20
2019-03-24T23:38:36.622Z,30.37
2019-03-24T23:41:04.740Z,32.67
2019-03-24T23:43:34.558Z,32.57
2019-03-24T23:46:02.887Z,33.40
2019-03-24T23:48:31.377Z,32.10
2019-03-24T23:50:59.793Z,31.43
2019-03-24T23:53:28.021Z,30.10
2019-03-24T23:55:56.403Z,28.60
2019-03-24T23:58:24.665Z,31.10
